createdAt,value
2018-12-19T00:01:13.275Z,235.77
2018-12-19T00:04:17.137Z,193.37
2018-12-19T00:07:21.025Z,184.90
2018-12-19T00:10:22.927Z,225.10
2018-12-19T00:13:25.726Z,235.60
2018-12-19T00:16:27.521Z,231.63
2018-12-19T00:19:29.212Z,221.10
2018-12-19T00:22:31.120Z,261.27
2018-12-19T00:25:32.810Z,237.10
2018-12-19T00:28:36.659Z,249.83
2018-12-19T00:31:40.485Z,242.37
2018-12-19T00:34:44.298Z,251.30
2018-12-19T00:37:46.070Z,269.27
2018-12-19T00:41:15.355Z,252.63
2018-12-19T00:44:17.432Z,251.00
2018-12-19T00:47:19.247Z,257.43
2018-12-19T00:50:20.992Z,246.13
2018-12-19T00:53:22.876Z,268.70
2018-12-19T00:56:24.727Z,254.10
2018-12-19T00:59:26.581Z,284.33
2018-12-19T01:02:28.326Z,273.27
2018-12-19T01:05:30.124Z,263.97
2018-12-19T01:08:31.855Z,279.23
2018-12-19T01:11:33.703Z,273.53
2018-12-19T01:14:36.544Z,272.07
2018-12-19T01:17:38.334Z,282.77
2018-12-19T01:20:40.115Z,279.17
2018-12-19T01:23:41.890Z,292.17
2018-12-19T01:26:43.610Z,276.60
2018-12-19T01:29:45.496Z,268.93
2018-12-19T01:32:47.405Z,282.70
2018-12-19T01:35:49.186Z,282.93
2018-12-19T01:38:50.954Z,290.70
2018-12-19T01:41:52.797Z,281.13
2018-12-19T01:44:54.807Z,271.90
2018-12-19T01:47:56.561Z,269.53
2018-12-19T01:50:58.283Z,269.50
2018-12-19T01:54:00.179Z,280.37
2018-12-19T01:57:01.917Z,277.83
2018-12-19T02:00:04.105Z,264.23
2018-12-19T02:03:05.901Z,263.97
2018-12-19T02:06:07.780Z,278.93
2018-12-19T02:09:09.537Z,258.10
2018-12-19T02:12:12.267Z,275.97
2018-12-19T02:15:14.157Z,195.90
2018-12-19T02:18:16.099Z,201.50
2018-12-19T02:21:17.846Z,187.43
2018-12-19T02:24:19.650Z,233.17
2018-12-19T02:27:21.408Z,240.90
2018-12-19T02:30:23.209Z,250.27
2018-12-19T02:33:24.976Z,234.23
2018-12-19T02:36:26.784Z,244.03
2018-12-19T02:39:28.509Z,225.40
2018-12-19T02:42:30.265Z,238.23
2018-12-19T02:45:32.081Z,222.40
2018-12-19T02:48:33.903Z,238.60
2018-12-19T02:51:35.734Z,219.80
2018-12-19T02:54:37.464Z,255.10
2018-12-19T02:57:39.264Z,245.10
2018-12-19T03:00:41.016Z,224.07
2018-12-19T03:03:42.801Z,225.77
2018-12-19T03:06:44.577Z,232.30
2018-12-19T03:09:46.333Z,263.90
2018-12-19T03:12:48.127Z,282.40
2018-12-19T03:15:49.930Z,288.57
2018-12-19T03:18:51.754Z,262.67
2018-12-19T03:21:53.500Z,332.27
2018-12-19T03:24:55.247Z,322.23
2018-12-19T03:27:56.983Z,309.03
2018-12-19T03:30:58.756Z,321.57
2018-12-19T03:34:02.502Z,291.67
2018-12-19T03:37:04.317Z,290.80
2018-12-19T03:40:06.312Z,290.17
2018-12-19T03:43:08.076Z,295.13
2018-12-19T03:46:09.981Z,275.50
2018-12-19T03:49:11.825Z,288.07
2018-12-19T03:52:13.671Z,288.57
2018-12-19T03:55:15.505Z,250.63
2018-12-19T03:58:17.333Z,262.73
2018-12-19T04:01:19.345Z,235.17
2018-12-19T04:04:21.163Z,256.80
2018-12-19T04:07:22.964Z,241.37
2018-12-19T04:10:24.666Z,242.70
2018-12-19T04:13:26.453Z,283.07
2018-12-19T04:16:28.433Z,228.60
2018-12-19T04:19:30.306Z,231.43
2018-12-19T04:22:41.166Z,209.90
2018-12-19T04:25:43.000Z,230.90
2018-12-19T04:28:45.017Z,175.43
2018-12-19T04:31:46.837Z,162.93
2018-12-19T04:34:48.656Z,200.73
2018-12-19T04:37:50.377Z,204.73
2018-12-19T04:40:52.156Z,172.53
2018-12-19T04:43:53.924Z,167.27
2018-12-19T04:47:02.817Z,191.63
2018-12-19T04:50:04.716Z,233.57
2018-12-19T04:53:06.535Z,239.17
2018-12-19T04:56:08.294Z,220.20
2018-12-19T04:59:10.090Z,172.80
2018-12-19T05:02:12.105Z,222.63
2018-12-19T05:05:13.920Z,226.93
2018-12-19T05:08:15.655Z,240.67
2018-12-19T05:11:17.402Z,238.20
2018-12-19T05:14:19.296Z,266.80
2018-12-19T05:17:21.205Z,268.17
2018-12-19T05:23:57.062Z,259.67
2018-12-19T05:26:58.862Z,255.77
2018-12-19T05:30:00.682Z,275.87
2018-12-19T05:33:02.515Z,284.43
2018-12-19T05:36:04.332Z,279.10
2018-12-19T05:39:06.114Z,281.43
2018-12-19T05:42:07.860Z,273.70
2018-12-19T05:45:09.553Z,267.63
2018-12-19T05:48:11.288Z,281.87
2018-12-19T05:51:13.101Z,263.63
2018-12-19T05:54:14.987Z,268.63
2018-12-19T05:57:17.353Z,253.43
2018-12-19T06:00:22.157Z,229.67
2018-12-19T06:03:25.882Z,242.63
2018-12-19T06:06:27.616Z,252.83
2018-12-19T06:09:29.511Z,245.70
2018-12-19T06:12:31.305Z,258.00
2018-12-19T06:15:33.065Z,265.90
2018-12-19T06:18:34.835Z,251.93
2018-12-19T06:21:36.732Z,241.17
2018-12-19T06:24:38.625Z,250.27
2018-12-19T06:27:40.404Z,263.00
2018-12-19T06:30:42.200Z,228.53
2018-12-19T06:33:44.495Z,234.67
2018-12-19T06:36:53.233Z,198.93
2018-12-19T06:39:54.971Z,212.40
2018-12-19T06:42:56.681Z,240.70
2018-12-19T06:45:58.523Z,259.87
2018-12-19T06:49:00.353Z,256.80
2018-12-19T06:52:02.695Z,238.50
2018-12-19T06:55:04.655Z,245.80
2018-12-19T06:58:06.350Z,251.03
2018-12-19T07:01:08.111Z,240.77
2018-12-19T07:04:09.852Z,258.93
2018-12-19T07:07:11.569Z,253.87
2018-12-19T07:10:13.485Z,267.37
2018-12-19T07:13:15.391Z,212.17
2018-12-19T07:16:17.277Z,276.03
2018-12-19T07:19:19.070Z,229.30
2018-12-19T07:22:20.922Z,199.60
2018-12-19T07:25:22.693Z,244.53
2018-12-19T07:28:24.511Z,230.13
2018-12-19T07:31:26.299Z,217.00
2018-12-19T07:34:28.167Z,245.53
2018-12-19T07:37:29.886Z,189.03
2018-12-19T07:40:31.861Z,236.63
2018-12-19T07:43:33.647Z,234.97
2018-12-19T07:46:35.821Z,210.77
2018-12-19T07:49:44.729Z,223.00
2018-12-19T07:52:46.977Z,192.03
2018-12-19T07:55:49.334Z,217.00
2018-12-19T07:58:52.471Z,209.83
2018-12-19T08:01:54.392Z,231.77
2018-12-19T08:04:56.433Z,195.07
2018-12-19T08:07:58.274Z,200.43
2018-12-19T08:11:00.279Z,211.70
2018-12-19T08:14:02.805Z,186.37
2018-12-19T08:17:04.608Z,195.37
2018-12-19T08:20:06.729Z,201.07
2018-12-19T08:23:08.778Z,183.27
2018-12-19T08:26:10.645Z,204.37
2018-12-19T08:29:12.924Z,185.33
2018-12-19T08:32:14.671Z,183.07
2018-12-19T08:35:16.453Z,171.83
2018-12-19T08:38:18.204Z,194.07
2018-12-19T08:41:20.033Z,179.00
2018-12-19T08:44:21.826Z,173.57
2018-12-19T08:47:23.655Z,190.87
2018-12-19T08:50:25.587Z,174.70
2018-12-19T08:53:27.525Z,168.30
2018-12-19T08:56:29.412Z,189.80
2018-12-19T08:59:31.284Z,212.93
2018-12-19T09:02:33.065Z,208.97
2018-12-19T09:05:34.802Z,196.47
2018-12-19T09:08:36.623Z,209.47
2018-12-19T09:11:38.383Z,180.43
2018-12-19T09:14:40.223Z,183.73
2018-12-19T09:17:42.025Z,167.17
2018-12-19T09:20:45.271Z,151.93
2018-12-19T09:23:47.148Z,160.70
2018-12-19T09:26:48.960Z,173.03
2018-12-19T09:29:50.875Z,174.23
2018-12-19T09:32:52.818Z,163.23
2018-12-19T09:35:54.624Z,136.20
2018-12-19T09:38:56.445Z,154.17
2018-12-19T09:41:58.346Z,141.37
2018-12-19T09:45:00.105Z,135.63
2018-12-19T09:48:01.907Z,132.63
2018-12-19T09:51:03.988Z,124.57
2018-12-19T09:54:05.898Z,139.00
2018-12-19T09:57:07.798Z,148.30
2018-12-19T10:00:12.498Z,145.83
2018-12-19T10:03:14.438Z,152.27
2018-12-19T10:06:16.842Z,135.03
2018-12-19T10:09:18.611Z,129.20
2018-12-19T10:12:20.533Z,129.53
2018-12-19T10:15:22.771Z,137.40
2018-12-19T10:18:24.671Z,132.17
2018-12-19T10:21:26.668Z,124.20
2018-12-19T10:24:34.425Z,128.30
2018-12-19T10:27:36.280Z,131.13
2018-12-19T10:30:44.052Z,119.47
2018-12-19T10:33:45.832Z,120.57
2018-12-19T10:36:47.655Z,119.70
2018-12-19T10:39:49.477Z,118.13
2018-12-19T10:42:51.482Z,114.70
2018-12-19T10:45:53.390Z,111.67
2018-12-19T10:48:55.168Z,106.57
2018-12-19T10:51:57.029Z,106.80
2018-12-19T10:54:58.828Z,93.53
2018-12-19T10:58:00.647Z,103.67
2018-12-19T11:01:02.568Z,96.33
2018-12-19T11:04:04.526Z,99.53
2018-12-19T11:07:06.276Z,115.17
2018-12-19T11:10:08.249Z,114.97
2018-12-19T11:13:10.034Z,111.07
2018-12-19T11:16:11.812Z,99.57
2018-12-19T11:19:13.548Z,97.30
2018-12-19T11:22:15.351Z,104.53
2018-12-19T11:25:17.109Z,95.10
2018-12-19T11:28:18.899Z,94.17
2018-12-19T11:31:21.789Z,100.00
2018-12-19T11:34:23.624Z,94.57
2018-12-19T11:37:25.497Z,91.27
2018-12-19T11:40:27.262Z,96.77
2018-12-19T11:43:29.074Z,77.93
2018-12-19T11:46:30.854Z,82.50
2018-12-19T11:49:32.731Z,86.03
2018-12-19T11:52:34.686Z,86.90
2018-12-19T11:55:36.508Z,96.07
2018-12-19T11:58:38.300Z,95.80
2018-12-19T12:01:41.499Z,93.70
2018-12-19T12:04:43.579Z,86.87
2018-12-19T12:07:47.421Z,85.97
2018-12-19T12:10:49.158Z,96.53
2018-12-19T12:13:50.980Z,97.80
2018-12-19T12:16:52.761Z,90.53
2018-12-19T12:19:54.632Z,97.60
2018-12-19T12:22:56.464Z,79.63
2018-12-19T12:26:05.236Z,73.10
2018-12-19T12:29:07.118Z,73.53
2018-12-19T12:32:08.995Z,68.60
2018-12-19T12:35:10.908Z,64.50
2018-12-19T12:38:12.685Z,63.70
2018-12-19T12:41:14.400Z,60.40
2018-12-19T12:44:16.224Z,57.43
2018-12-19T12:47:18.050Z,61.43
2018-12-19T12:50:19.799Z,58.23
2018-12-19T12:53:21.672Z,57.63
2018-12-19T12:56:23.507Z,103.80
2018-12-19T12:59:25.217Z,153.30
2018-12-19T13:02:27.061Z,86.37
2018-12-19T13:05:28.909Z,77.23
2018-12-19T13:08:30.622Z,71.37
2018-12-19T13:11:32.400Z,57.03
2018-12-19T13:14:34.241Z,68.93
2018-12-19T13:17:36.054Z,67.77
2018-12-19T13:20:37.971Z,61.77
2018-12-19T13:23:39.711Z,57.63
2018-12-19T13:26:41.579Z,55.37
2018-12-19T13:29:43.557Z,57.20
2018-12-19T13:32:45.993Z,59.07
2018-12-19T13:35:47.838Z,57.80
2018-12-19T13:38:49.686Z,56.20
2018-12-19T13:41:51.463Z,55.50
2018-12-19T13:44:53.342Z,62.90
2018-12-19T13:47:55.287Z,57.67
2018-12-19T13:50:57.228Z,54.63
2018-12-19T13:53:59.026Z,56.73
2018-12-19T13:57:01.114Z,58.60
2018-12-19T14:00:05.650Z,57.90
2018-12-19T14:03:07.583Z,57.63
2018-12-19T14:06:09.299Z,51.67
2018-12-19T14:09:11.490Z,65.77
2018-12-19T14:12:13.340Z,64.23
2018-12-19T14:15:15.279Z,58.23
2018-12-19T14:18:17.159Z,60.00
2018-12-19T14:21:18.952Z,69.63
2018-12-19T14:24:20.836Z,61.00
2018-12-19T14:27:22.566Z,65.90
2018-12-19T14:30:24.425Z,60.30
2018-12-19T14:33:26.298Z,63.80
2018-12-19T14:36:28.192Z,64.50
2018-12-19T14:39:30.098Z,58.63
2018-12-19T14:42:32.003Z,66.13
2018-12-19T14:45:33.971Z,65.93
2018-12-19T14:48:35.810Z,74.10
2018-12-19T14:51:39.034Z,77.27
2018-12-19T14:54:40.905Z,80.93
2018-12-19T14:57:42.679Z,81.53
2018-12-19T15:00:44.578Z,73.63
2018-12-19T15:03:46.385Z,79.70
2018-12-19T15:06:48.148Z,71.90
2018-12-19T15:09:50.074Z,74.93
2018-12-19T15:12:52.372Z,69.27
2018-12-19T15:16:00.199Z,62.80
2018-12-19T15:19:02.097Z,62.53
2018-12-19T15:22:03.908Z,81.33
2018-12-19T15:25:06.053Z,104.63
2018-12-19T15:28:07.984Z,96.70
2018-12-19T15:31:09.758Z,112.67
2018-12-19T15:34:11.518Z,101.47
2018-12-19T15:37:13.795Z,85.17
2018-12-19T15:40:15.585Z,74.13
2018-12-19T15:43:17.657Z,72.70
2018-12-19T15:46:19.499Z,65.97
2018-12-19T15:49:21.359Z,61.70
2018-12-19T15:52:23.340Z,50.47
2018-12-19T15:55:25.321Z,42.83
2018-12-19T15:58:27.069Z,37.13
2018-12-19T16:01:28.929Z,40.57
2018-12-19T16:04:30.853Z,45.77
2018-12-19T16:07:32.864Z,39.20
2018-12-19T16:10:34.775Z,27.77
2018-12-19T16:13:36.573Z,23.57
2018-12-19T16:16:38.456Z,22.80
2018-12-19T16:19:40.345Z,27.77
2018-12-19T16:22:42.168Z,27.63
2018-12-19T16:25:44.144Z,29.40
2018-12-19T16:28:45.951Z,26.37
2018-12-19T16:31:47.804Z,24.47
2018-12-19T16:34:49.676Z,26.93
2018-12-19T16:37:51.565Z,22.60
2018-12-19T16:40:53.385Z,21.77
2018-12-19T16:43:56.364Z,23.53
2018-12-19T16:46:58.118Z,25.03
2018-12-19T16:49:59.914Z,25.23
2018-12-19T16:53:01.629Z,26.43
2018-12-19T16:56:04.613Z,25.43
2018-12-19T16:59:06.377Z,25.33
2018-12-19T17:02:08.933Z,25.27
2018-12-19T17:05:10.716Z,28.97
2018-12-19T17:08:13.621Z,24.57
2018-12-19T17:11:15.440Z,28.87
2018-12-19T17:14:17.476Z,28.93
2018-12-19T17:17:19.371Z,28.87
2018-12-19T17:20:21.280Z,26.37
2018-12-19T17:23:23.235Z,25.27
2018-12-19T17:26:25.294Z,29.03
2018-12-19T17:29:28.263Z,26.70
2018-12-19T17:32:30.365Z,26.33
2018-12-19T17:35:32.703Z,23.87
2018-12-19T17:38:34.927Z,29.33
2018-12-19T17:41:52.230Z,26.17
2018-12-19T17:44:54.418Z,29.23
2018-12-19T17:47:56.458Z,26.73
2018-12-19T17:50:58.474Z,28.57
2018-12-19T17:54:00.434Z,32.10
2018-12-19T17:57:02.429Z,33.53
2018-12-19T18:00:05.037Z,34.20
2018-12-19T18:03:07.147Z,28.63
2018-12-19T18:06:09.133Z,28.70
2018-12-19T18:09:11.300Z,30.57
2018-12-19T18:12:13.344Z,30.93
2018-12-19T18:15:15.376Z,30.17
2018-12-19T18:18:17.436Z,31.63
2018-12-19T18:21:20.587Z,28.57
2018-12-19T18:24:22.950Z,31.10
2018-12-19T18:27:25.037Z,34.53
2018-12-19T18:30:27.250Z,31.43
2018-12-19T18:33:29.349Z,27.30
2018-12-19T18:36:31.440Z,30.43
2018-12-19T18:39:33.432Z,33.40
2018-12-19T18:42:35.669Z,31.53
2018-12-19T18:45:37.653Z,34.93
2018-12-19T18:48:39.777Z,30.33
2018-12-19T18:51:41.786Z,31.30
2018-12-19T18:54:43.697Z,43.73
2018-12-19T18:57:45.686Z,49.77
2018-12-19T19:00:49.792Z,49.70
2018-12-19T19:03:51.843Z,42.63
2018-12-19T19:06:53.964Z,34.90
2018-12-19T19:09:55.992Z,34.63
2018-12-19T19:12:58.035Z,38.53
2018-12-19T19:16:01.547Z,35.97
2018-12-19T19:19:04.441Z,35.43
2018-12-19T19:22:06.578Z,35.40
2018-12-19T19:25:09.030Z,37.10
2018-12-19T19:28:11.166Z,37.23
2018-12-19T19:31:13.506Z,34.30
2018-12-19T19:34:16.037Z,30.53
2018-12-19T19:37:18.073Z,33.33
2018-12-19T19:40:21.225Z,34.60
2018-12-19T19:43:26.710Z,32.87
2018-12-19T19:46:31.695Z,34.37
2018-12-19T19:49:36.568Z,35.17
2018-12-19T19:52:39.585Z,31.67
2018-12-19T19:55:42.715Z,35.17
2018-12-19T19:58:48.065Z,34.80
2018-12-19T20:01:50.547Z,38.00
2018-12-19T20:04:54.308Z,35.20
2018-12-19T20:07:56.403Z,36.57
2018-12-19T20:10:58.601Z,35.03
2018-12-19T20:14:01.630Z,38.70
2018-12-19T20:17:04.186Z,34.53
2018-12-19T20:20:07.534Z,41.77
2018-12-19T20:23:09.593Z,35.00
2018-12-19T20:26:11.991Z,39.90
2018-12-19T20:29:14.136Z,44.67
2018-12-19T20:32:16.280Z,39.83
2018-12-19T20:35:19.595Z,43.53
2018-12-19T20:38:21.788Z,43.70
2018-12-19T20:41:23.955Z,45.33
2018-12-19T20:44:26.075Z,47.13
2018-12-19T20:47:29.107Z,44.20
2018-12-19T20:50:32.087Z,44.87
2018-12-19T20:53:35.291Z,42.73
2018-12-19T20:56:38.667Z,49.07
2018-12-19T20:59:41.663Z,46.20
2018-12-19T21:02:44.123Z,47.90
2018-12-19T21:05:53.238Z,42.53
2018-12-19T21:08:55.240Z,43.67
2018-12-19T21:11:57.468Z,39.50
2018-12-19T21:14:59.518Z,48.57
2018-12-19T21:18:07.616Z,48.80
2018-12-19T21:21:09.699Z,53.17
2018-12-19T21:24:11.793Z,42.13
2018-12-19T21:27:13.811Z,49.67
2018-12-19T21:30:15.890Z,45.27
2018-12-19T21:33:18.583Z,47.70
2018-12-19T21:36:20.682Z,46.80
2018-12-19T21:39:22.718Z,44.40
2018-12-19T21:42:24.723Z,42.87
2018-12-19T21:45:26.599Z,39.13
2018-12-19T21:48:28.704Z,41.03
2018-12-19T21:51:30.471Z,32.50
2018-12-19T21:54:32.510Z,42.10
2018-12-19T21:57:41.639Z,33.77
2018-12-19T22:00:43.463Z,36.97
2018-12-19T22:03:45.247Z,38.03
2018-12-19T22:06:47.056Z,34.07
2018-12-19T22:09:48.945Z,34.90
2018-12-19T22:12:50.928Z,33.67
2018-12-19T22:15:52.791Z,33.20
2018-12-19T22:18:56.766Z,35.30
2018-12-19T22:21:58.708Z,33.33
2018-12-19T22:34:22.016Z,34.80
2018-12-19T22:37:26.311Z,30.60
2018-12-19T22:54:11.076Z,33.70
2018-12-19T22:57:13.235Z,32.87
2018-12-19T23:00:24.274Z,28.87
2018-12-19T23:03:31.550Z,25.30
2018-12-19T23:06:34.207Z,32.23
2018-12-19T23:14:15.362Z,27.80
2018-12-19T23:17:25.945Z,35.60
2018-12-19T23:20:34.217Z,43.23
2018-12-19T23:23:42.172Z,35.50
2018-12-19T23:26:46.499Z,41.37
2018-12-19T23:29:50.511Z,47.13
2018-12-19T23:32:52.514Z,47.23
2018-12-19T23:35:54.325Z,38.53
2018-12-19T23:38:56.072Z,34.40
2018-12-19T23:41:57.888Z,27.47
2018-12-19T23:44:59.723Z,30.87
2018-12-19T23:48:01.713Z,29.30
2018-12-19T23:51:03.756Z,32.93
2018-12-19T23:54:05.725Z,30.43
2018-12-19T23:57:08.024Z,31.63
